createdAt,value
2018-04-16T00:02:05.130Z,52.83
2018-04-16T00:04:31.808Z,57.40
2018-04-16T00:06:58.819Z,54.33
2018-04-16T00:09:25.624Z,50.77
2018-04-16T00:11:52.399Z,52.87
2018-04-16T00:14:19.547Z,42.00
2018-04-16T00:16:46.291Z,46.03
2018-04-16T00:19:13.026Z,55.03
2018-04-16T00:21:39.868Z,52.37
2018-04-16T00:24:06.716Z,51.77
2018-04-16T00:26:33.556Z,46.47
2018-04-16T00:29:00.398Z,37.77
2018-04-16T00:31:33.279Z,48.70
2018-04-16T00:34:08.418Z,43.00
2018-04-16T00:36:41.000Z,51.37
2018-04-16T00:39:16.686Z,48.90
2018-04-16T00:41:49.602Z,55.40
2018-04-16T00:44:22.616Z,51.00
2018-04-16T00:46:55.574Z,53.43
2018-04-16T00:49:28.585Z,51.27
2018-04-16T00:52:02.352Z,51.30
2018-04-16T00:54:35.072Z,58.13
2018-04-16T00:57:08.061Z,59.47
2018-04-16T00:59:40.839Z,52.73
2018-04-16T01:02:13.828Z,49.27
2018-04-16T01:07:57.074Z,53.10
2018-04-16T01:10:29.855Z,44.57
2018-04-16T01:13:04.836Z,47.20
2018-04-16T01:15:38.325Z,44.13
2018-04-16T01:18:11.938Z,51.60
2018-04-16T01:20:44.661Z,49.37
2018-04-16T01:23:19.637Z,48.00
2018-04-16T01:25:53.274Z,47.77
2018-04-16T01:28:27.006Z,54.90
2018-04-16T01:30:59.862Z,52.23
2018-04-16T01:33:33.490Z,53.77
2018-04-16T01:36:06.372Z,53.27
2018-04-16T01:38:39.285Z,42.53
2018-04-16T01:41:12.042Z,44.20
2018-04-16T01:43:44.824Z,42.87
2018-04-16T01:46:17.704Z,46.13
2018-04-16T01:48:50.695Z,45.90
2018-04-16T01:51:23.529Z,46.47
2018-04-16T01:53:57.164Z,57.20
2018-04-16T01:56:30.167Z,50.77
2018-04-16T01:59:02.932Z,52.90
2018-04-16T02:01:35.929Z,51.70
2018-04-16T02:07:25.827Z,53.33
2018-04-16T02:09:58.715Z,49.47
2018-04-16T02:12:31.892Z,48.97
2018-04-16T02:15:05.304Z,54.97
2018-04-16T02:17:38.157Z,56.10
2018-04-16T02:20:14.757Z,52.83
2018-04-16T02:22:47.743Z,49.17
2018-04-16T02:25:22.883Z,49.03
2018-04-16T02:27:55.869Z,49.17
2018-04-16T02:30:28.538Z,44.87
2018-04-16T02:33:03.478Z,52.57
2018-04-16T02:35:37.138Z,53.43
2018-04-16T02:40:48.476Z,64.97
2018-04-16T02:43:21.478Z,60.90
2018-04-16T02:45:55.169Z,61.53
2018-04-16T02:48:28.049Z,55.57
2018-04-16T02:51:01.035Z,44.87
2018-04-16T02:53:33.641Z,48.13
2018-04-16T02:56:06.500Z,55.30
2018-04-16T03:01:18.617Z,53.70
2018-04-16T03:03:53.650Z,53.90
2018-04-16T03:06:26.956Z,52.30
2018-04-16T03:08:59.723Z,47.93
2018-04-16T03:11:32.610Z,50.93
2018-04-16T03:14:05.700Z,47.50
2018-04-16T03:19:40.669Z,50.27
2018-04-16T03:22:15.687Z,53.77
2018-04-16T03:24:48.777Z,56.33
2018-04-16T03:27:23.356Z,54.10
2018-04-16T03:29:56.900Z,48.00
2018-04-16T03:32:29.987Z,53.70
2018-04-16T03:35:02.963Z,51.40
2018-04-16T03:37:38.009Z,54.67
2018-04-16T03:40:10.792Z,54.70
2018-04-16T03:42:43.882Z,60.73
2018-04-16T03:45:16.865Z,55.00
2018-04-16T03:47:49.647Z,58.87
2018-04-16T03:50:24.320Z,58.60
2018-04-16T03:52:57.008Z,54.97
2018-04-16T03:55:39.463Z,53.50
2018-04-16T03:58:06.301Z,53.90
2018-04-16T04:00:33.243Z,58.17
2018-04-16T04:02:59.909Z,54.57
2018-04-16T04:05:26.829Z,65.17
2018-04-16T04:07:53.674Z,59.33
2018-04-16T04:10:20.615Z,58.60
2018-04-16T04:12:47.326Z,53.60
2018-04-16T04:15:14.197Z,57.60
2018-04-16T04:17:40.934Z,61.37
2018-04-16T04:20:07.780Z,59.77
2018-04-16T04:22:46.807Z,51.93
2018-04-16T04:25:25.731Z,51.20
2018-04-16T04:28:04.864Z,52.27
2018-04-16T04:30:33.829Z,57.70
2018-04-16T04:33:00.597Z,53.57
2018-04-16T04:35:27.511Z,49.73
2018-04-16T04:37:54.998Z,40.43
2018-04-16T04:40:21.737Z,45.13
2018-04-16T04:42:48.990Z,55.00
2018-04-16T04:45:15.643Z,62.67
2018-04-16T04:47:42.272Z,58.37
2018-04-16T04:50:09.001Z,56.83
2018-04-16T04:52:35.741Z,54.67
2018-04-16T04:55:02.483Z,51.67
2018-04-16T04:57:29.154Z,52.73
2018-04-16T04:59:56.067Z,49.47
2018-04-16T05:02:22.916Z,59.83
2018-04-16T05:04:49.577Z,55.50
2018-04-16T05:07:16.491Z,60.20
2018-04-16T05:09:43.329Z,59.20
2018-04-16T05:12:10.043Z,63.90
2018-04-16T05:14:36.744Z,62.77
2018-04-16T05:17:04.268Z,70.63
2018-04-16T05:19:31.112Z,68.50
2018-04-16T05:21:58.058Z,65.70
2018-04-16T05:24:24.827Z,65.17
2018-04-16T05:26:51.477Z,68.90
2018-04-16T05:29:18.378Z,71.30
2018-04-16T05:31:45.220Z,69.37
2018-04-16T05:34:12.065Z,69.70
2018-04-16T05:36:38.908Z,68.13
2018-04-16T05:39:05.657Z,80.27
2018-04-16T05:41:32.284Z,72.10
2018-04-16T05:43:59.535Z,80.73
2018-04-16T05:46:26.377Z,75.60
2018-04-16T05:48:53.117Z,64.93
2018-04-16T05:51:19.955Z,65.40
2018-04-16T05:53:46.651Z,72.97
2018-04-16T05:56:13.404Z,111.13
2018-04-16T05:58:40.379Z,133.07
2018-04-16T06:01:07.119Z,91.23
2018-04-16T06:03:33.967Z,79.73
2018-04-16T06:06:01.319Z,71.90
2018-04-16T06:08:28.057Z,62.40
2018-04-16T06:10:55.004Z,54.47
2018-04-16T06:13:21.850Z,53.80
2018-04-16T06:15:48.587Z,57.77
2018-04-16T06:18:15.397Z,56.67
2018-04-16T06:20:42.988Z,54.27
2018-04-16T06:23:09.863Z,53.20
2018-04-16T06:25:36.669Z,45.93
2018-04-16T06:28:03.420Z,46.17
2018-04-16T06:30:30.169Z,48.83
2018-04-16T06:32:56.897Z,44.50
2018-04-16T06:35:23.734Z,41.63
2018-04-16T06:37:50.473Z,44.23
2018-04-16T06:40:17.316Z,39.37
2018-04-16T06:42:43.965Z,42.90
2018-04-16T06:45:10.629Z,41.87
2018-04-16T06:47:37.536Z,39.43
2018-04-16T06:50:04.277Z,41.93
2018-04-16T06:52:31.115Z,38.43
2018-04-16T06:54:57.960Z,41.80
2018-04-16T06:57:24.704Z,43.10
2018-04-16T06:59:51.385Z,42.73
2018-04-16T07:02:18.158Z,41.90
2018-04-16T07:04:45.944Z,40.60
2018-04-16T07:07:12.576Z,41.00
2018-04-16T07:09:39.321Z,39.17
2018-04-16T07:12:06.386Z,47.00
2018-04-16T07:14:33.042Z,36.20
2018-04-16T07:16:59.848Z,38.87
2018-04-16T07:19:26.582Z,40.73
2018-04-16T07:21:53.428Z,34.23
2018-04-16T07:24:20.171Z,39.23
2018-04-16T07:26:47.012Z,34.17
2018-04-16T07:29:13.955Z,37.93
2018-04-16T07:31:40.692Z,33.50
2018-04-16T07:34:07.410Z,31.43
2018-04-16T07:36:34.553Z,31.07
2018-04-16T07:39:01.320Z,29.27
2018-04-16T07:41:28.065Z,30.73
2018-04-16T07:43:54.877Z,26.90
2018-04-16T07:46:22.265Z,30.03
2018-04-16T07:48:49.001Z,30.47
2018-04-16T07:51:16.225Z,25.43
2018-04-16T07:53:43.678Z,30.00
2018-04-16T07:56:11.268Z,28.40
2018-04-16T07:58:37.933Z,27.20
2018-04-16T08:01:04.745Z,25.73
2018-04-16T08:03:31.489Z,25.73
2018-04-16T08:05:58.333Z,24.70
2018-04-16T08:08:25.284Z,25.90
2018-04-16T08:10:52.220Z,20.90
2018-04-16T08:13:19.062Z,21.97
2018-04-16T08:15:45.734Z,19.70
2018-04-16T08:18:12.432Z,18.70
2018-04-16T08:20:39.282Z,19.00
2018-04-16T08:23:06.126Z,15.37
2018-04-16T08:25:32.865Z,15.97
2018-04-16T08:27:59.707Z,14.07
2018-04-16T08:30:26.448Z,14.17
2018-04-16T08:32:53.158Z,12.47
2018-04-16T08:35:20.591Z,12.57
2018-04-16T08:37:47.281Z,14.03
2018-04-16T08:40:13.934Z,12.10
2018-04-16T08:42:40.573Z,12.37
2018-04-16T08:45:07.402Z,12.43
2018-04-16T08:47:34.053Z,11.83
2018-04-16T08:50:00.879Z,11.93
2018-04-16T08:52:27.723Z,12.97
2018-04-16T08:54:54.377Z,10.77
2018-04-16T08:57:21.061Z,10.03
2018-04-16T08:59:48.442Z,10.43
2018-04-16T09:02:15.210Z,10.23
2018-04-16T09:04:41.921Z,9.27
2018-04-16T09:07:08.673Z,11.03
2018-04-16T09:09:35.357Z,10.20
2018-04-16T09:12:02.167Z,6.77
2018-04-16T09:14:28.880Z,7.07
2018-04-16T09:16:55.553Z,12.17
2018-04-16T09:19:22.234Z,8.83
2018-04-16T09:21:49.621Z,9.27
2018-04-16T09:24:16.389Z,9.27
2018-04-16T09:26:43.036Z,8.33
2018-04-16T09:29:09.692Z,8.00
2018-04-16T09:31:37.170Z,11.17
2018-04-16T09:34:04.650Z,8.37
2018-04-16T09:36:32.255Z,10.27
2018-04-16T09:38:58.943Z,9.07
2018-04-16T09:41:25.591Z,8.20
2018-04-16T09:43:52.264Z,8.27
2018-04-16T09:46:18.947Z,9.10
2018-04-16T09:48:45.770Z,6.90
2018-04-16T09:51:12.450Z,10.20
2018-04-16T09:53:39.164Z,10.20
2018-04-16T09:56:06.560Z,13.03
2018-04-16T09:58:33.255Z,11.23
2018-04-16T10:01:00.817Z,10.63
2018-04-16T10:03:28.242Z,11.57
2018-04-16T10:05:55.005Z,12.30
2018-04-16T10:08:22.105Z,12.60
2018-04-16T10:10:48.748Z,14.13
2018-04-16T10:13:15.458Z,13.60
2018-04-16T10:15:42.186Z,13.30
2018-04-16T10:18:08.877Z,13.80
2018-04-16T10:20:35.621Z,14.43
2018-04-16T10:23:02.293Z,14.30
2018-04-16T10:25:29.739Z,15.07
2018-04-16T10:27:57.205Z,15.63
2018-04-16T10:30:24.588Z,14.20
2018-04-16T10:32:51.201Z,16.40
2018-04-16T10:35:18.973Z,14.50
2018-04-16T10:37:45.684Z,15.03
2018-04-16T10:40:12.342Z,9.53
2018-04-16T10:42:39.173Z,12.87
2018-04-16T10:45:06.568Z,12.93
2018-04-16T10:47:33.236Z,15.93
2018-04-16T10:49:59.960Z,15.53
2018-04-16T10:52:26.607Z,11.97
2018-04-16T10:54:53.285Z,9.47
2018-04-16T10:57:20.085Z,8.67
2018-04-16T10:59:46.749Z,10.63
2018-04-16T11:02:13.480Z,9.77
2018-04-16T11:04:40.290Z,10.17
2018-04-16T11:07:06.990Z,10.57
2018-04-16T11:09:34.529Z,9.13
2018-04-16T11:12:01.228Z,9.47
2018-04-16T11:14:27.869Z,10.07
2018-04-16T11:16:54.648Z,13.17
2018-04-16T11:19:21.324Z,14.63
2018-04-16T11:21:47.936Z,14.43
2018-04-16T11:24:15.313Z,12.13
2018-04-16T11:26:42.442Z,13.77
2018-04-16T11:29:10.009Z,14.30
2018-04-16T11:31:37.456Z,10.93
2018-04-16T11:34:04.092Z,12.83
2018-04-16T11:36:31.576Z,13.43
2018-04-16T11:38:58.422Z,14.40
2018-04-16T11:41:25.145Z,13.50
2018-04-16T11:43:52.280Z,11.87
2018-04-16T11:46:19.681Z,13.63
2018-04-16T11:48:46.390Z,13.53
2018-04-16T11:51:13.129Z,13.20
2018-04-16T11:53:39.978Z,13.63
2018-04-16T11:56:06.717Z,14.47
2018-04-16T11:58:33.342Z,12.97
2018-04-16T12:01:00.133Z,12.93
2018-04-16T12:03:26.780Z,12.40
2018-04-16T12:05:53.445Z,11.10
2018-04-16T12:08:20.273Z,11.70
2018-04-16T12:10:46.953Z,12.23
2018-04-16T12:13:13.702Z,10.53
2018-04-16T12:15:40.377Z,11.80
2018-04-16T12:18:07.145Z,14.27
2018-04-16T12:20:33.849Z,12.43
2018-04-16T12:23:00.522Z,13.30
2018-04-16T12:25:27.265Z,12.43
2018-04-16T12:27:53.976Z,16.00
2018-04-16T12:30:20.641Z,14.97
2018-04-16T12:32:48.119Z,18.47
2018-04-16T12:35:14.897Z,15.03
2018-04-16T12:37:41.689Z,17.67
2018-04-16T12:40:08.337Z,16.30
2018-04-16T12:42:35.049Z,16.80
2018-04-16T12:45:01.776Z,17.93
2018-04-16T12:47:29.225Z,17.33
2018-04-16T12:49:55.917Z,18.10
2018-04-16T12:52:23.317Z,18.43
2018-04-16T12:54:50.050Z,18.87
2018-04-16T12:57:16.709Z,18.13
2018-04-16T12:59:43.428Z,17.77
2018-04-16T13:02:10.114Z,17.93
2018-04-16T13:04:37.486Z,16.53
2018-04-16T13:07:04.224Z,15.20
2018-04-16T13:09:30.936Z,13.30
2018-04-16T13:11:57.616Z,13.13
2018-04-16T13:14:24.268Z,13.60
2018-04-16T13:16:50.954Z,14.73
2018-04-16T13:19:18.479Z,12.30
2018-04-16T13:21:45.186Z,12.73
2018-04-16T13:24:11.886Z,12.13
2018-04-16T13:26:39.489Z,12.63
2018-04-16T13:29:06.219Z,14.10
2018-04-16T13:31:33.071Z,14.03
2018-04-16T13:33:59.719Z,13.83
2018-04-16T13:36:26.366Z,13.63
2018-04-16T13:38:53.187Z,13.97
2018-04-16T13:41:19.928Z,15.67
2018-04-16T13:43:46.770Z,13.03
2018-04-16T13:46:13.630Z,15.03
2018-04-16T13:48:40.284Z,14.60
2018-04-16T13:51:07.061Z,13.63
2018-04-16T13:53:34.752Z,12.70
2018-04-16T13:56:01.417Z,12.83
2018-04-16T13:58:28.542Z,13.47
2018-04-16T14:00:55.280Z,13.77
2018-04-16T14:03:22.122Z,13.13
2018-04-16T14:05:48.939Z,12.13
2018-04-16T14:08:15.702Z,11.87
2018-04-16T14:10:42.547Z,12.50
2018-04-16T14:13:09.391Z,11.23
2018-04-16T14:15:36.330Z,12.43
2018-04-16T14:18:03.178Z,12.37
2018-04-16T14:20:29.919Z,13.60
2018-04-16T14:22:56.760Z,11.53
2018-04-16T14:25:23.602Z,13.60
2018-04-16T14:27:50.308Z,14.77
2018-04-16T14:30:17.794Z,12.73
2018-04-16T14:32:44.471Z,11.50
2018-04-16T14:35:11.893Z,13.23
2018-04-16T14:37:38.740Z,9.77
2018-04-16T14:40:05.679Z,9.20
2018-04-16T14:42:32.419Z,7.83
2018-04-16T14:44:59.156Z,8.13
2018-04-16T14:47:25.857Z,9.17
2018-04-16T14:49:52.494Z,8.63
2018-04-16T14:52:19.192Z,10.57
2018-04-16T14:54:46.244Z,9.10
2018-04-16T14:57:12.966Z,9.07
2018-04-16T14:59:39.892Z,9.73
2018-04-16T15:02:06.557Z,8.10
2018-04-16T15:04:33.253Z,10.00
2018-04-16T15:07:00.733Z,7.30
2018-04-16T15:09:27.480Z,10.00
2018-04-16T15:11:54.289Z,8.00
2018-04-16T15:14:21.001Z,7.87
2018-04-16T15:16:47.695Z,9.40
2018-04-16T15:19:14.864Z,7.37
2018-04-16T15:21:41.633Z,8.90
2018-04-16T15:24:08.290Z,9.77
2018-04-16T15:26:35.105Z,8.37
2018-04-16T15:29:01.810Z,10.03
2018-04-16T15:31:28.520Z,10.20
2018-04-16T15:33:55.978Z,8.87
2018-04-16T15:36:23.425Z,8.60
2018-04-16T15:38:50.881Z,8.30
2018-04-16T15:41:17.588Z,8.73
2018-04-16T15:43:44.945Z,9.57
2018-04-16T15:46:11.630Z,6.53
2018-04-16T15:48:38.306Z,7.20
2018-04-16T15:51:05.061Z,6.40
2018-04-16T15:53:32.490Z,7.97
2018-04-16T15:55:59.400Z,8.60
2018-04-16T15:58:26.899Z,6.50
2018-04-16T16:00:53.483Z,6.97
2018-04-16T16:03:20.123Z,6.43
2018-04-16T16:05:47.156Z,5.63
2018-04-16T16:08:14.093Z,5.93
2018-04-16T16:10:40.869Z,6.73
2018-04-16T16:13:08.009Z,5.47
2018-04-16T16:15:34.632Z,11.00
2018-04-16T16:18:01.420Z,7.07
2018-04-16T16:20:29.352Z,5.37
2018-04-16T16:22:55.929Z,5.93
2018-04-16T16:25:22.542Z,5.93
2018-04-16T16:27:49.271Z,5.40
2018-04-16T16:30:15.961Z,5.90
2018-04-16T16:32:43.309Z,7.50
2018-04-16T16:35:10.027Z,8.27
2018-04-16T16:37:36.667Z,7.17
2018-04-16T16:40:03.278Z,5.53
2018-04-16T16:42:29.870Z,5.87
2018-04-16T16:44:57.270Z,8.23
2018-04-16T16:47:23.903Z,6.43
2018-04-16T16:49:51.321Z,7.20
2018-04-16T16:52:18.174Z,7.17
2018-04-16T16:54:44.801Z,8.53
2018-04-16T16:57:12.182Z,8.83
2018-04-16T16:59:39.677Z,9.73
2018-04-16T17:02:06.297Z,8.43
2018-04-16T17:04:32.992Z,10.27
2018-04-16T17:07:00.338Z,11.27
2018-04-16T17:09:26.998Z,12.17
2018-04-16T17:11:53.795Z,12.70
2018-04-16T17:14:20.488Z,12.50
2018-04-16T17:16:48.048Z,9.53
2018-04-16T17:19:14.608Z,8.93
2018-04-16T17:21:41.164Z,8.47
2018-04-16T17:24:07.801Z,13.33
2018-04-16T17:26:34.457Z,9.07
2018-04-16T17:29:01.154Z,10.43
2018-04-16T17:31:28.275Z,8.40
2018-04-16T17:33:56.937Z,6.47
2018-04-16T17:36:24.508Z,14.53
2018-04-16T17:38:51.311Z,9.10
2018-04-16T17:41:17.874Z,8.87
2018-04-16T17:43:45.710Z,8.10
2018-04-16T17:46:12.407Z,7.80
2018-04-16T17:48:39.090Z,9.87
2018-04-16T17:51:05.701Z,13.10
2018-04-16T17:53:32.264Z,8.63
2018-04-16T17:55:58.850Z,12.53
2018-04-16T17:58:25.404Z,8.63
2018-04-16T18:00:52.081Z,13.97
2018-04-16T18:03:18.915Z,9.20
2018-04-16T18:05:45.550Z,13.70
2018-04-16T18:08:12.292Z,13.40
2018-04-16T18:10:39.134Z,14.13
2018-04-16T18:13:12.834Z,10.70
2018-04-16T18:15:39.578Z,10.73
2018-04-16T18:18:06.314Z,12.57
2018-04-16T18:20:33.058Z,15.23
2018-04-16T18:23:00.203Z,10.10
2018-04-16T18:25:27.246Z,13.00
2018-04-16T18:27:54.506Z,11.97
2018-04-16T18:30:21.244Z,10.13
2018-04-16T18:32:48.290Z,10.70
2018-04-16T18:35:15.546Z,11.93
2018-04-16T18:37:42.288Z,9.20
2018-04-16T18:40:10.869Z,9.40
2018-04-16T18:42:37.885Z,12.07
2018-04-16T18:45:04.595Z,10.63
2018-04-16T18:47:31.601Z,12.03
2018-04-16T18:49:58.234Z,11.77
2018-04-16T18:52:25.490Z,13.50
2018-04-16T18:54:52.230Z,12.47
2018-04-16T18:57:19.270Z,10.03
2018-04-16T18:59:45.904Z,13.60
2018-04-16T19:02:12.758Z,11.23
2018-04-16T19:04:39.703Z,10.73
2018-04-16T19:07:06.647Z,10.87
2018-04-16T19:09:33.382Z,12.57
2018-04-16T19:12:00.227Z,11.23
2018-04-16T19:14:27.761Z,12.37
2018-04-16T19:16:54.725Z,12.70
2018-04-16T19:19:21.473Z,10.53
2018-04-16T19:21:53.332Z,22.73
2018-04-16T19:24:20.185Z,10.57
2018-04-16T19:26:55.857Z,10.67
2018-04-16T19:29:22.768Z,12.97
2018-04-16T19:31:49.508Z,11.53
2018-04-16T19:34:22.281Z,13.60
2018-04-16T19:36:48.921Z,11.53
2018-04-16T19:39:15.662Z,9.67
2018-04-16T19:41:50.462Z,10.10
2018-04-16T19:44:17.543Z,12.77
2018-04-16T19:46:44.109Z,13.77
2018-04-16T19:49:17.054Z,19.87
2018-04-16T19:51:44.315Z,17.83
2018-04-16T19:54:11.158Z,14.03
2018-04-16T19:56:43.828Z,16.00
2018-04-16T19:59:10.681Z,17.93
2018-04-16T20:01:37.419Z,16.60
2018-04-16T20:04:04.160Z,19.80
2018-04-16T20:06:30.788Z,21.83
2018-04-16T20:08:57.639Z,18.30
2018-04-16T20:11:25.813Z,22.20
2018-04-16T20:13:52.472Z,22.07
2018-04-16T20:16:19.907Z,20.47
2018-04-16T20:18:47.944Z,20.23
2018-04-16T20:21:14.717Z,21.00
2018-04-16T20:23:41.662Z,22.23
2018-04-16T20:26:08.403Z,19.37
2018-04-16T20:28:35.044Z,22.60
2018-04-16T20:31:03.418Z,19.90
2018-04-16T20:33:30.010Z,20.97
2018-04-16T20:35:56.797Z,23.57
2018-04-16T20:38:23.433Z,21.50
2018-04-16T20:40:50.170Z,24.07
2018-04-16T20:43:16.914Z,25.33
2018-04-16T20:45:43.486Z,22.23
2018-04-16T20:48:10.901Z,26.80
2018-04-16T20:50:37.645Z,23.57
2018-04-16T20:53:04.385Z,21.10
2018-04-16T20:55:31.019Z,24.77
2018-04-16T20:57:57.866Z,21.67
2018-04-16T21:00:24.605Z,23.23
2018-04-16T21:02:51.340Z,24.37
2018-04-16T21:05:17.989Z,27.00
2018-04-16T21:07:44.718Z,23.53
2018-04-16T21:10:11.473Z,23.13
2018-04-16T21:12:38.304Z,20.67
2018-04-16T21:15:04.985Z,23.10
2018-04-16T21:17:32.603Z,19.57
2018-04-16T21:19:59.340Z,21.83
2018-04-16T21:22:25.974Z,21.80
2018-04-16T21:24:53.014Z,30.27
2018-04-16T21:27:19.564Z,23.00
2018-04-16T21:29:46.141Z,20.10
2018-04-16T21:32:12.838Z,21.57
2018-04-16T21:34:39.471Z,24.33
2018-04-16T21:37:06.073Z,22.83
2018-04-16T21:39:32.656Z,22.37
2018-04-16T21:41:59.388Z,23.27
2018-04-16T21:44:27.561Z,24.33
2018-04-16T21:46:54.213Z,24.33
2018-04-16T21:49:22.167Z,23.07
2018-04-16T21:51:49.011Z,23.40
2018-04-16T21:54:15.589Z,22.63
2018-04-16T21:56:42.290Z,20.07
2018-04-16T21:59:09.025Z,23.13
2018-04-16T22:01:37.088Z,27.00
2018-04-16T22:04:03.681Z,24.13
2018-04-16T22:06:30.367Z,28.40
2018-04-16T22:08:57.110Z,21.93
2018-04-16T22:11:23.851Z,28.70
2018-04-16T22:13:50.590Z,26.87
2018-04-16T22:16:17.326Z,23.13
2018-04-16T22:18:45.416Z,28.53
2018-04-16T22:21:11.992Z,19.37
2018-04-16T22:23:38.676Z,22.83
2018-04-16T22:26:05.621Z,26.57
2018-04-16T22:28:32.361Z,24.87
2018-04-16T22:30:58.935Z,24.03
2018-04-16T22:33:25.685Z,24.53
2018-04-16T22:35:53.061Z,20.57
2018-04-16T22:38:20.109Z,25.40
2018-04-16T22:40:46.879Z,27.13
2018-04-16T22:43:13.616Z,28.60
2018-04-16T22:45:40.564Z,23.63
2018-04-16T22:48:07.133Z,28.10
2018-04-16T22:50:34.552Z,27.37
2018-04-16T22:53:01.705Z,27.27
2018-04-16T22:55:28.325Z,26.63
2018-04-16T22:57:54.897Z,27.27
2018-04-16T23:00:22.329Z,28.47
2018-04-16T23:02:48.989Z,21.47
2018-04-16T23:05:15.815Z,25.33
2018-04-16T23:07:42.657Z,24.90
2018-04-16T23:10:09.396Z,30.43
2018-04-16T23:12:36.214Z,23.83
2018-04-16T23:15:03.183Z,21.70
2018-04-16T23:17:29.816Z,29.50
2018-04-16T23:19:56.503Z,21.70
2018-04-16T23:22:23.297Z,25.03
2018-04-16T23:24:50.143Z,27.87
2018-04-16T23:27:16.883Z,25.43
2018-04-16T23:29:43.573Z,29.27
2018-04-16T23:32:10.251Z,23.20
2018-04-16T23:34:37.102Z,32.73
2018-04-16T23:37:03.838Z,27.37
2018-04-16T23:39:30.583Z,24.27
2018-04-16T23:41:57.323Z,25.30
2018-04-16T23:44:24.063Z,30.57
2018-04-16T23:46:50.698Z,24.47
2018-04-16T23:49:17.543Z,28.27
2018-04-16T23:51:44.182Z,28.10
2018-04-16T23:54:10.917Z,26.17
2018-04-16T23:56:37.911Z,27.63
2018-04-16T23:59:04.557Z,24.13
